Flight Track Log - Related Links

Times and Time Zones

All times are in EDT time to prevent confusion due to time zone crossing. See the N1983V flight status page for this flight to view local times or setup timezone preferences in your user account.

Time Position Orientation Groundspeed Altitude Reporting Facility
EDT Latitude Longitude Course Direction KTS MPH feet Rate Location/Type
Sat 07:21:40 AM 42.7589 -72.3325 222° Southwest 110 127 4,500  Level Boston Center
Sat 07:22:40 AM 42.7381 -72.3639 228° Southwest 110 127 4,600 50 Climbing Boston Center
Sat 07:23:40 AM 42.7214 -72.3950 234° Southwest 110 127 4,600  Level Boston Center
Sat 07:24:40 AM 42.7025 -72.4203 225° Southwest 110 127 4,600 -50 Level Boston Center
Sat 07:25:40 AM 42.6817 -72.4514 228° Southwest 110 127 4,500  Descending Boston Center
Sat 07:26:40 AM 42.6608 -72.4739 218° Southwest 110 127 4,600  Climbing Boston Center
Sat 07:27:00 AM 42.0676 -72.8581 222° Southwest  Level Estimated
Sat 07:27:40 AM 42.6422 -72.4936 218° Southwest 110 127 4,500  Level Boston Center
Sat 07:28:40 AM 42.6192 -72.5247 225° Southwest 110 127 4,500  Level Boston Center
Sat 07:29:12 AM 42.6025 -72.5389 212° Southwest 102 117 4,500  Level Boston Center
Sat 07:29:40 AM 42.6006 -72.5500 257° West 105 121 4,500  Level Boston Center
Sat 07:30:40 AM 42.5817 -72.5783 228° Southwest 105 121 4,500 50 Level Boston Center
Sat 07:31:40 AM 42.5608 -72.6036 222° Southwest 100 115 4,600 50 Climbing Boston Center
Sat 07:32:40 AM 42.5378 -72.6261 216° Southwest 100 115 4,600  Level Boston Center
Sat 07:33:40 AM 42.5169 -72.6542 225° Southwest 105 121 4,600 -50 Level Boston Center
Sat 07:34:40 AM 42.5003 -72.6822 231° Southwest 105 121 4,500  Descending Boston Center
Sat 07:35:40 AM 42.4772 -72.7103 222° Southwest 105 121 4,600 50 Climbing Boston Center
Sat 07:36:40 AM 42.4542 -72.7328 216° Southwest 105 121 4,600 -50 Level Boston Center
Sat 07:37:40 AM 42.4375 -72.7636 234° Southwest 105 121 4,500 -50 Descending Boston Center
Sat 07:38:40 AM 42.4208 -72.7944 234° Southwest 105 121 4,500  Level Boston Center
Sat 07:39:00 AM 42.4164 -72.8114 250° West 103 119 4,500  Level Boston Center
Sat 07:39:40 AM 42.4061 -72.8281 230° Southwest 105 121 4,500  Level Boston Center
Sat 07:40:01 AM 42.3997 -72.8422 239° Southwest 103 119 4,500  Level Boston Center
Sat 07:40:40 AM 42.3872 -72.8561 219° Southwest 105 121 4,500  Level Boston Center
Sat 07:41:01 AM 42.3786 -72.8700 230° Southwest 103 119 4,500  Level Boston Center
Sat 07:41:40 AM 42.3642 -72.8811 210° Southwest 105 121 4,500  Level Boston Center
Sat 07:41:56 AM 42.3578 -72.8925 233° Southwest 104 120 4,500  Level Boston Center
Sat 07:42:40 AM 42.3411 -72.9036 206° Southwest 110 127 4,500 98 Level Boston Center
Sat 07:42:57 AM 42.3328 -72.9092 206° Southwest 100 115 4,600 100 Climbing Boston Center
Sat 07:43:40 AM 42.3181 -72.9231 215° Southwest 103 119 4,600  Level Boston Center
Sat 07:43:57 AM 42.3117 -72.9314 224° Southwest 98 113 4,600  Level Boston Center
Sat 07:44:52 AM 42.2950 -72.9594 231° Southwest 101 116 4,600 52 Level Boston Center
Sat 07:45:53 AM 42.2761 -72.9872 227° Southwest 100 115 4,700  Climbing Boston Center
Sat 07:46:53 AM 42.2550 -73.0178 227° Southwest 110 127 4,600 -50 Descending Boston Center
Sat 07:47:54 AM 42.2319 -73.0486 225° Southwest 111 128 4,600 -50 Level Boston Center
Sat 07:48:54 AM 42.2089 -73.0792 224° Southwest 111 128 4,500 -50 Descending Boston Center
Sat 07:49:55 AM 42.1817 -73.1014 211° Southwest 113 130 4,500 49 Level Boston Center
Sat 07:50:56 AM 42.1608 -73.1319 227° Southwest 113 130 4,600 50 Climbing Boston Center
Sat 07:51:56 AM 42.1417 -73.1625 230° Southwest 105 121 4,600  Level Boston Center
Sat 07:52:57 AM 42.1208 -73.1903 225° Southwest 106 122 4,600  Level Boston Center
Sat 07:53:58 AM 42.0997 -73.2181 224° Southwest 109 125 4,600  Level Boston Center
Sat 07:54:58 AM 42.0744 -73.2539 226° Southwest 118 136 4,600 -50 Level Boston Center
Sat 07:55:59 AM 42.0533 -73.2844 227° Southwest 118 136 4,500  Descending Boston Center
Sat 07:56:59 AM 42.0344 -73.3233 237° Southwest 115 132 4,600 50 Climbing Boston Center
Sat 07:58:00 AM 42.0175 -73.3567 236° Southwest 114 131 4,600 -20 Level Boston Center
Sat 07:59:00 AM 41.9893 -73.3551 178° South  Level FlightAware Approximate
Sat 08:02:02 AM 41.9333 -73.4667 204° Southwest 112 129 4,500  Level New York TRACON
Sat 08:03:08 AM 41.9000 -73.5000 217° Southwest 109 125 4,500  Level New York TRACON
Sat 08:04:02 AM 41.8833 -73.5333 236° Southwest 109 125 4,500  Level New York TRACON
Sat 08:04:56 AM 41.8667 -73.5667 236° Southwest 112 129 4,500  Level New York TRACON
Sat 08:05:56 AM 41.8500 -73.5833 217° Southwest 112 129 4,500  Level New York TRACON
Sat 08:06:00 AM 41.8238 -73.4990 214° Southwest  Level Estimated
Sat 08:06:56 AM 41.8167 -73.6167 217° Southwest 113 130 4,500  Level New York TRACON
Sat 08:07:00 AM 41.7980 -73.5142 204° Southwest  Level FlightAware Approximate
Sat 08:07:56 AM 41.8000 -73.6333 217° Southwest 110 127 4,500  Level New York TRACON
Sat 08:08:56 AM 41.7833 -73.6667 236° Southwest 106 122 4,500  Level New York TRACON
Sat 08:09:50 AM 41.7500 -73.6833 200° South 110 127 4,500  Level New York TRACON
Sat 08:10:50 AM 41.7333 -73.7167 236° Southwest 110 127 4,500 50 Level New York TRACON
Sat 08:11:50 AM 41.7167 -73.7500 236° Southwest 109 125 4,600  Climbing New York TRACON
Sat 08:12:50 AM 41.6833 -73.7667 200° South 113 130 4,500  Descending New York TRACON
Sat 08:13:50 AM 41.6667 -73.8000 236° Southwest 109 125 4,600 50 Climbing New York TRACON
Sat 08:14:50 AM 41.6333 -73.8167 200° South 114 131 4,600 -50 Level New York TRACON
Sat 08:15:50 AM 41.6167 -73.8500 236° Southwest 112 129 4,500 -50 Descending New York TRACON
Sat 08:16:50 AM 41.5833 -73.8833 217° Southwest 113 130 4,500 -50 Level New York TRACON
Sat 08:17:50 AM 41.5667 -73.9000 217° Southwest 117 135 4,400  Descending New York TRACON
Sat 08:18:50 AM 41.5333 -73.9167 201° Southwest 116 133 4,500 100 Climbing New York TRACON
Sat 08:19:50 AM 41.5000 -73.9333 201° Southwest 116 133 4,600 50 Climbing New York TRACON
Sat 08:20:50 AM 41.4833 -73.9500 217° Southwest 115 132 4,600 -50 Level New York TRACON
Sat 08:21:50 AM 41.4500 -73.9833 217° Southwest 121 139 4,500 -50 Descending New York TRACON
Sat 08:22:50 AM 41.4333 -74.0000 217° Southwest 114 131 4,500  Level New York TRACON
Sat 08:23:44 AM 41.4000 -74.0333 217° Southwest 113 130 4,500  Level New York TRACON
Sat 08:24:44 AM 41.3833 -74.0500 217° Southwest 113 130 4,500 50 Level New York TRACON
Sat 08:25:44 AM 41.3500 -74.0667 201° Southwest 116 133 4,600 -67 Climbing New York TRACON
Sat 08:30:00 AM 41.3180 -74.0875 210° Southwest  Level Estimated
Sat 08:37:00 AM 41.1380 -74.1931 204° Southwest  Level FlightAware Approximate
Sat 08:38:00 AM 41.1123 -74.2082 204° Southwest  Level FlightAware Approximate
Sat 08:39:00 AM 41.0866 -74.2232 204° Southwest  Level FlightAware Approximate
Sat 08:39:38 AM 40.9667 -74.3167 204° Southwest 111 128 3,500  Level New York TRACON
Sat 08:40:00 AM 41.0609 -74.2382 204° Southwest  Level FlightAware Approximate
Sat 08:40:38 AM 40.9333 -74.3333 201° Southwest 112 129 3,500  Level New York TRACON
Sat 08:41:00 AM 41.0351 -74.2532 204° Southwest  Level FlightAware Approximate
Sat 08:41:38 AM 40.9000 -74.3500 201° Southwest 112 129 3,500  Level New York TRACON
Sat 08:42:00 AM 41.0094 -74.2682 204° Southwest  Level FlightAware Approximate
Sat 08:42:38 AM 40.8833 -74.3500 180° South 110 127 3,500  Level New York TRACON
Sat 08:43:00 AM 40.9837 -74.2832 204° Southwest  Level FlightAware Approximate
Sat 08:43:32 AM 40.8500 -74.3667 201° Southwest 111 128 3,500  Level New York TRACON
Sat 08:44:00 AM 40.9580 -74.2981 204° Southwest  Level FlightAware Approximate
Sat 08:44:32 AM 40.8333 -74.3833 217° Southwest 106 122 3,500  Level New York TRACON
Sat 08:45:32 AM 40.8000 -74.4000 201° Southwest 109 125 3,400  Descending New York TRACON
Sat 08:46:32 AM 40.7667 -74.4167 201° Southwest 110 127 3,500 100 Climbing New York TRACON
Sat 08:47:32 AM 40.7500 -74.4333 217° Southwest 108 124 3,600  Climbing New York TRACON
Sat 08:48:32 AM 40.7167 -74.4667 217° Southwest 112 129 3,500 -250 Descending New York TRACON
Sat 08:49:32 AM 40.6833 -74.4833 201° Southwest 120 138 3,100 -350 Descending New York TRACON
Sat 08:50:32 AM 40.6667 -74.5000 217° Southwest 116 133 2,800 -300 Descending New York TRACON
Sat 08:52:00 AM 40.6197 -74.5061 210° Southwest  Level FlightAware Approximate
Sat 08:59:00 AM 40.5167 -74.5833 210° Southwest  Level FlightAware Approximate
Sat 09:00:00 AM 40.5244 -74.5983 210° Southwest  Level Estimated
Sat 09:01:00 AM 40.5244 -74.5983 210° Southwest  Level Estimated
Sat 09:02:00 AM 40.5244 -74.5983 210° Southwest  Level Estimated
Sat 09:03:00 AM 40.5244 -74.5983 210° Southwest  Level Estimated
Sat 09:04:00 AM 40.5244 -74.5983 210° Southwest  Level Estimated
Sat 09:05:00 AM 40.5244 -74.5983 210° Southwest  Level Estimated
Sat 09:06:00 AM 40.5244 -74.5983 210° Southwest  Level Estimated
Sat 09:07:00 AM 40.5244 -74.5983 210° Southwest  Level Estimated
Sat 09:08:00 AM 40.5244 -74.5983 210° Southwest  Level Estimated
Sat 09:09:00 AM 40.5244 -74.5983 210° Southwest  Level Estimated
Sat 09:10:00 AM 40.5244 -74.5983 210° Southwest  Level Estimated
Sat 09:11:00 AM 40.5244 -74.5983 210° Southwest  Level Estimated

Login

Don't have an account? Register now (free) for customized features, flight alerts, and more!